sensor_id;sensor_type;location;lat;lon;timestamp;pressure;altitude;pressure_sealevel;temperature;humidity
84352;BME280;75904;43.524;1.518;2024-02-16T00:00:15;100093.91;;;14.57;70.66
84352;BME280;75904;43.524;1.518;2024-02-16T00:02:44;100097.63;;;14.56;70.89
84352;BME280;75904;43.524;1.518;2024-02-16T00:05:10;100103.03;;;14.56;70.88
84352;BME280;75904;43.524;1.518;2024-02-16T00:07:37;100110.59;;;14.60;70.94
84352;BME280;75904;43.524;1.518;2024-02-16T00:10:03;100108.44;;;14.56;71.72
84352;BME280;75904;43.524;1.518;2024-02-16T00:12:33;100118.53;;;14.62;70.42
84352;BME280;75904;43.524;1.518;2024-02-16T00:14:59;100118.44;;;14.55;71.23
84352;BME280;75904;43.524;1.518;2024-02-16T00:17:25;100122.44;;;14.59;70.41
84352;BME280;75904;43.524;1.518;2024-02-16T00:19:55;100129.59;;;14.52;70.97
84352;BME280;75904;43.524;1.518;2024-02-16T00:22:21;100134.53;;;14.49;71.61
84352;BME280;75904;43.524;1.518;2024-02-16T00:24:46;100138.03;;;14.57;71.36
84352;BME280;75904;43.524;1.518;2024-02-16T00:27:12;100137.38;;;14.55;71.48
84352;BME280;75904;43.524;1.518;2024-02-16T00:29:37;100135.50;;;14.56;71.42
84352;BME280;75904;43.524;1.518;2024-02-16T00:32:06;100138.88;;;14.58;71.32
84352;BME280;75904;43.524;1.518;2024-02-16T00:34:32;100142.50;;;14.50;71.16
84352;BME280;75904;43.524;1.518;2024-02-16T00:36:58;100154.44;;;14.56;71.45
84352;BME280;75904;43.524;1.518;2024-02-16T00:39:23;100158.91;;;14.49;71.96
84352;BME280;75904;43.524;1.518;2024-02-16T00:41:50;100159.75;;;14.49;71.17
84352;BME280;75904;43.524;1.518;2024-02-16T00:44:15;100159.34;;;14.52;71.48
84352;BME280;75904;43.524;1.518;2024-02-16T00:46:41;100163.06;;;14.51;71.88
84352;BME280;75904;43.524;1.518;2024-02-16T00:49:06;100162.56;;;14.56;71.64
84352;BME280;75904;43.524;1.518;2024-02-16T00:51:32;100164.88;;;14.59;71.56
84352;BME280;75904;43.524;1.518;2024-02-16T00:53:57;100162.84;;;14.61;71.09
84352;BME280;75904;43.524;1.518;2024-02-16T00:56:23;100171.91;;;14.68;70.79
84352;BME280;75904;43.524;1.518;2024-02-16T00:58:48;100172.19;;;14.58;71.25
84352;BME280;75904;43.524;1.518;2024-02-16T01:01:14;100176.47;;;14.67;71.07
84352;BME280;75904;43.524;1.518;2024-02-16T01:03:39;100179.25;;;14.59;70.99
84352;BME280;75904;43.524;1.518;2024-02-16T01:06:05;100181.44;;;14.64;70.22
84352;BME280;75904;43.524;1.518;2024-02-16T01:08:31;100185.63;;;14.66;70.20
84352;BME280;75904;43.524;1.518;2024-02-16T01:10:57;100182.38;;;14.71;70.62
84352;BME280;75904;43.524;1.518;2024-02-16T01:13:22;100190.13;;;14.74;70.60
84352;BME280;75904;43.524;1.518;2024-02-16T01:15:48;100186.28;;;14.68;70.64
84352;BME280;75904;43.524;1.518;2024-02-16T01:18:13;100183.28;;;14.63;70.50
84352;BME280;75904;43.524;1.518;2024-02-16T01:20:38;100179.28;;;14.74;71.40
84352;BME280;75904;43.524;1.518;2024-02-16T01:23:04;100172.84;;;14.75;71.24
84352;BME280;75904;43.524;1.518;2024-02-16T01:25:30;100175.22;;;14.78;70.24
84352;BME280;75904;43.524;1.518;2024-02-16T01:27:56;100183.34;;;14.78;71.21
84352;BME280;75904;43.524;1.518;2024-02-16T01:30:21;100181.53;;;14.70;69.92
84352;BME280;75904;43.524;1.518;2024-02-16T01:32:47;100182.84;;;14.75;70.57
84352;BME280;75904;43.524;1.518;2024-02-16T01:35:12;100184.91;;;14.73;70.23
84352;BME280;75904;43.524;1.518;2024-02-16T01:37:42;100179.97;;;14.76;70.60
84352;BME280;75904;43.524;1.518;2024-02-16T01:40:11;100180.59;;;14.63;69.99
84352;BME280;75904;43.524;1.518;2024-02-16T01:42:42;100180.81;;;14.77;69.93
84352;BME280;75904;43.524;1.518;2024-02-16T01:45:08;100169.53;;;14.73;69.79
84352;BME280;75904;43.524;1.518;2024-02-16T01:47:38;100182.31;;;14.79;69.97
84352;BME280;75904;43.524;1.518;2024-02-16T01:50:04;100178.53;;;14.65;70.46
84352;BME280;75904;43.524;1.518;2024-02-16T01:52:31;100174.94;;;14.73;70.92
84352;BME280;75904;43.524;1.518;2024-02-16T01:54:59;100164.47;;;14.70;71.35
84352;BME280;75904;43.524;1.518;2024-02-16T01:57:24;100166.44;;;14.76;70.72
84352;BME280;75904;43.524;1.518;2024-02-16T01:59:50;100168.84;;;14.71;70.65
84352;BME280;75904;43.524;1.518;2024-02-16T02:02:16;100168.75;;;14.64;70.17
84352;BME280;75904;43.524;1.518;2024-02-16T02:04:41;100167.59;;;14.59;71.21
84352;BME280;75904;43.524;1.518;2024-02-16T02:07:16;100167.78;;;14.57;71.02
84352;BME280;75904;43.524;1.518;2024-02-16T02:09:41;100168.97;;;14.55;71.41
84352;BME280;75904;43.524;1.518;2024-02-16T02:12:10;100173.56;;;14.54;70.76
84352;BME280;75904;43.524;1.518;2024-02-16T02:14:36;100168.88;;;14.48;72.17
84352;BME280;75904;43.524;1.518;2024-02-16T02:17:04;100160.50;;;14.58;71.91
84352;BME280;75904;43.524;1.518;2024-02-16T02:19:29;100166.56;;;14.60;71.34
84352;BME280;75904;43.524;1.518;2024-02-16T02:21:56;100158.16;;;14.55;71.84
84352;BME280;75904;43.524;1.518;2024-02-16T02:24:21;100167.41;;;14.60;70.98
84352;BME280;75904;43.524;1.518;2024-02-16T02:26:47;100161.22;;;14.52;71.53
84352;BME280;75904;43.524;1.518;2024-02-16T02:29:12;100165.94;;;14.58;70.64
84352;BME280;75904;43.524;1.518;2024-02-16T02:31:38;100162.72;;;14.54;71.56
84352;BME280;75904;43.524;1.518;2024-02-16T02:34:03;100163.00;;;14.59;70.84
84352;BME280;75904;43.524;1.518;2024-02-16T02:36:31;100170.84;;;14.54;71.78
84352;BME280;75904;43.524;1.518;2024-02-16T02:38:56;100172.63;;;14.62;70.76
84352;BME280;75904;43.524;1.518;2024-02-16T02:41:22;100166.94;;;14.57;70.61
84352;BME280;75904;43.524;1.518;2024-02-16T02:43:48;100169.53;;;14.50;70.66
84352;BME280;75904;43.524;1.518;2024-02-16T02:46:16;100160.50;;;14.58;71.23
84352;BME280;75904;43.524;1.518;2024-02-16T02:48:43;100162.56;;;14.56;71.11
84352;BME280;75904;43.524;1.518;2024-02-16T02:51:09;100165.09;;;14.57;71.28
84352;BME280;75904;43.524;1.518;2024-02-16T02:53:35;100169.53;;;14.50;71.01
84352;BME280;75904;43.524;1.518;2024-02-16T02:56:00;100177.81;;;14.49;72.01
84352;BME280;75904;43.524;1.518;2024-02-16T02:58:25;100170.56;;;14.49;71.64
84352;BME280;75904;43.524;1.518;2024-02-16T03:00:51;100172.88;;;14.52;70.81
84352;BME280;75904;43.524;1.518;2024-02-16T03:03:16;100171.94;;;14.45;71.04
84352;BME280;75904;43.524;1.518;2024-02-16T03:05:42;100178.56;;;14.43;72.03
84352;BME280;75904;43.524;1.518;2024-02-16T03:08:07;100172.59;;;14.47;70.98
84352;BME280;75904;43.524;1.518;2024-02-16T03:10:32;100172.59;;;14.47;71.46
84352;BME280;75904;43.524;1.518;2024-02-16T03:13:00;100178.78;;;14.56;70.16
84352;BME280;75904;43.524;1.518;2024-02-16T03:15:26;100178.91;;;14.40;71.11
84352;BME280;75904;43.524;1.518;2024-02-16T03:17:51;100177.81;;;14.49;71.44
84352;BME280;75904;43.524;1.518;2024-02-16T03:20:17;100179.81;;;14.55;70.81
84352;BME280;75904;43.524;1.518;2024-02-16T03:22:42;100186.22;;;14.54;71.22
84352;BME280;75904;43.524;1.518;2024-02-16T03:25:08;100184.94;;;14.50;71.31
84352;BME280;75904;43.524;1.518;2024-02-16T03:27:33;100174.81;;;14.44;70.85
84352;BME280;75904;43.524;1.518;2024-02-16T03:29:59;100179.97;;;14.53;70.51
84352;BME280;75904;43.524;1.518;2024-02-16T03:32:24;100172.75;;;14.46;71.22
84352;BME280;75904;43.524;1.518;2024-02-16T03:34:50;100183.13;;;14.42;72.30
84352;BME280;75904;43.524;1.518;2024-02-16T03:37:15;100170.06;;;14.46;70.76
84352;BME280;75904;43.524;1.518;2024-02-16T03:39:41;100181.91;;;14.45;71.81
84352;BME280;75904;43.524;1.518;2024-02-16T03:42:06;100189.38;;;14.43;71.51
84352;BME280;75904;43.524;1.518;2024-02-16T03:44:32;100196.09;;;14.47;71.85
84352;BME280;75904;43.524;1.518;2024-02-16T03:46:57;100198.13;;;14.45;72.98
84352;BME280;75904;43.524;1.518;2024-02-16T03:49:25;100203.19;;;14.48;72.65
84352;BME280;75904;43.524;1.518;2024-02-16T03:51:50;100205.72;;;14.49;72.26
84352;BME280;75904;43.524;1.518;2024-02-16T03:54:16;100205.91;;;14.48;72.99
84352;BME280;75904;43.524;1.518;2024-02-16T03:56:41;100208.72;;;14.54;72.06
84352;BME280;75904;43.524;1.518;2024-02-16T03:59:06;100207.94;;;14.46;72.91
84352;BME280;75904;43.524;1.518;2024-02-16T04:01:32;100206.91;;;14.47;73.52
84352;BME280;75904;43.524;1.518;2024-02-16T04:03:57;100205.59;;;14.43;73.53
84352;BME280;75904;43.524;1.518;2024-02-16T04:06:23;100204.22;;;14.47;73.14
84352;BME280;75904;43.524;1.518;2024-02-16T04:08:48;100218.75;;;14.46;72.97
84352;BME280;75904;43.524;1.518;2024-02-16T04:11:14;100219.41;;;14.48;73.29
84352;BME280;75904;43.524;1.518;2024-02-16T04:13:40;100215.69;;;14.49;73.25
84352;BME280;75904;43.524;1.518;2024-02-16T04:16:06;100214.34;;;14.45;73.47
84352;BME280;75904;43.524;1.518;2024-02-16T04:18:31;100226.88;;;14.46;73.09
84352;BME280;75904;43.524;1.518;2024-02-16T04:20:56;100223.31;;;14.45;73.74
84352;BME280;75904;43.524;1.518;2024-02-16T04:23:22;100226.03;;;14.45;73.91
84352;BME280;75904;43.524;1.518;2024-02-16T04:25:47;100227.59;;;14.40;73.36
84352;BME280;75904;43.524;1.518;2024-02-16T04:28:13;100228.44;;;14.40;73.59
84352;BME280;75904;43.524;1.518;2024-02-16T04:30:39;100232.28;;;14.38;74.22
84352;BME280;75904;43.524;1.518;2024-02-16T04:33:04;100236.38;;;14.42;74.38
84352;BME280;75904;43.524;1.518;2024-02-16T04:35:30;100242.75;;;14.49;74.06
84352;BME280;75904;43.524;1.518;2024-02-16T04:37:55;100241.53;;;14.51;74.08
84352;BME280;75904;43.524;1.518;2024-02-16T04:40:20;100242.88;;;14.55;73.87
84352;BME280;75904;43.524;1.518;2024-02-16T04:42:46;100259.94;;;14.56;73.62
84352;BME280;75904;43.524;1.518;2024-02-16T04:45:12;100253.34;;;14.58;73.93
84352;BME280;75904;43.524;1.518;2024-02-16T04:47:38;100255.84;;;14.60;73.76
84352;BME280;75904;43.524;1.518;2024-02-16T04:50:05;100269.38;;;14.60;74.02
84352;BME280;75904;43.524;1.518;2024-02-16T04:52:30;100272.28;;;14.58;73.84
84352;BME280;75904;43.524;1.518;2024-02-16T04:54:56;100274.31;;;14.56;73.74
84352;BME280;75904;43.524;1.518;2024-02-16T04:57:21;100268.41;;;14.53;73.19
84352;BME280;75904;43.524;1.518;2024-02-16T04:59:47;100279.56;;;14.58;73.53
84352;BME280;75904;43.524;1.518;2024-02-16T05:02:12;100283.75;;;14.60;73.58
84352;BME280;75904;43.524;1.518;2024-02-16T05:04:38;100287.00;;;14.56;72.93
84352;BME280;75904;43.524;1.518;2024-02-16T05:07:04;100289.03;;;14.54;73.99
84352;BME280;75904;43.524;1.518;2024-02-16T05:09:32;100295.28;;;14.54;74.29
84352;BME280;75904;43.524;1.518;2024-02-16T05:11:57;100285.19;;;14.48;74.25
84352;BME280;75904;43.524;1.518;2024-02-16T05:14:23;100296.47;;;14.52;74.10
84352;BME280;75904;43.524;1.518;2024-02-16T05:16:49;100299.84;;;14.54;73.86
84352;BME280;75904;43.524;1.518;2024-02-16T05:19:15;100308.03;;;14.46;74.31
84352;BME280;75904;43.524;1.518;2024-02-16T05:21:40;100312.06;;;14.50;74.38
84352;BME280;75904;43.524;1.518;2024-02-16T05:24:06;100311.88;;;14.51;73.67
84352;BME280;75904;43.524;1.518;2024-02-16T05:26:31;100315.75;;;14.57;74.20
84352;BME280;75904;43.524;1.518;2024-02-16T05:28:57;100315.06;;;14.55;72.97
84352;BME280;75904;43.524;1.518;2024-02-16T05:31:22;100316.47;;;14.51;74.36
84352;BME280;75904;43.524;1.518;2024-02-16T05:33:49;100323.91;;;14.49;74.12
84352;BME280;75904;43.524;1.518;2024-02-16T05:36:18;100329.31;;;14.49;73.25
84352;BME280;75904;43.524;1.518;2024-02-16T05:38:46;100331.00;;;14.50;73.66
84352;BME280;75904;43.524;1.518;2024-02-16T05:41:12;100340.13;;;14.49;73.91
84352;BME280;75904;43.524;1.518;2024-02-16T05:43:37;100332.19;;;14.47;73.49
84352;BME280;75904;43.524;1.518;2024-02-16T05:46:03;100338.09;;;14.51;73.67
84352;BME280;75904;43.524;1.518;2024-02-16T05:48:32;100347.25;;;14.50;74.11
84352;BME280;75904;43.524;1.518;2024-02-16T05:50:59;100347.25;;;14.50;74.57
84352;BME280;75904;43.524;1.518;2024-02-16T05:53:26;100362.13;;;14.46;74.75
84352;BME280;75904;43.524;1.518;2024-02-16T05:55:52;100362.28;;;14.44;75.41
84352;BME280;75904;43.524;1.518;2024-02-16T05:58:18;100363.13;;;14.45;75.39
84352;BME280;75904;43.524;1.518;2024-02-16T06:00:43;100359.09;;;14.41;74.46
84352;BME280;75904;43.524;1.518;2024-02-16T06:03:08;100363.50;;;14.42;73.88
84352;BME280;75904;43.524;1.518;2024-02-16T06:05:34;100366.22;;;14.42;74.78
84352;BME280;75904;43.524;1.518;2024-02-16T06:07:59;100367.91;;;14.43;74.32
84352;BME280;75904;43.524;1.518;2024-02-16T06:10:25;100370.78;;;14.41;74.98
84352;BME280;75904;43.524;1.518;2024-02-16T06:12:51;100371.97;;;14.39;75.17
84352;BME280;75904;43.524;1.518;2024-02-16T06:15:16;100372.94;;;14.38;74.12
84352;BME280;75904;43.524;1.518;2024-02-16T06:17:41;100378.72;;;14.34;75.15
84352;BME280;75904;43.524;1.518;2024-02-16T06:20:07;100387.47;;;14.37;75.05
84352;BME280;75904;43.524;1.518;2024-02-16T06:22:36;100391.41;;;14.34;75.17
84352;BME280;75904;43.524;1.518;2024-02-16T06:25:01;100390.88;;;14.30;74.52
84352;BME280;75904;43.524;1.518;2024-02-16T06:27:27;100402.91;;;14.28;75.83
84352;BME280;75904;43.524;1.518;2024-02-16T06:29:52;100401.38;;;14.33;74.30
84352;BME280;75904;43.524;1.518;2024-02-16T06:32:17;100405.41;;;14.29;74.66
84352;BME280;75904;43.524;1.518;2024-02-16T06:34:43;100401.69;;;14.30;74.95
84352;BME280;75904;43.524;1.518;2024-02-16T06:37:11;100403.91;;;14.35;74.70
84352;BME280;75904;43.524;1.518;2024-02-16T06:39:36;100398.00;;;14.40;74.33
84352;BME280;75904;43.524;1.518;2024-02-16T06:42:01;100398.84;;;14.40;75.49
84352;BME280;75904;43.524;1.518;2024-02-16T06:44:27;100399.69;;;14.41;74.64
84352;BME280;75904;43.524;1.518;2024-02-16T06:46:52;100407.78;;;14.41;75.07
84352;BME280;75904;43.524;1.518;2024-02-16T06:49:17;100402.88;;;14.44;73.98
84352;BME280;75904;43.524;1.518;2024-02-16T06:51:43;100401.19;;;14.43;75.36
84352;BME280;75904;43.524;1.518;2024-02-16T06:54:10;100407.09;;;14.47;74.08
84352;BME280;75904;43.524;1.518;2024-02-16T06:56:36;100415.19;;;14.47;75.15
84352;BME280;75904;43.524;1.518;2024-02-16T06:59:01;100414.53;;;14.45;74.32
84352;BME280;75904;43.524;1.518;2024-02-16T07:01:26;100418.59;;;14.49;73.88
84352;BME280;75904;43.524;1.518;2024-02-16T07:03:54;100420.78;;;14.45;75.59
84352;BME280;75904;43.524;1.518;2024-02-16T07:06:20;100425.00;;;14.48;74.69
84352;BME280;75904;43.524;1.518;2024-02-16T07:08:45;100427.38;;;14.51;73.89
84352;BME280;75904;43.524;1.518;2024-02-16T07:11:11;100430.56;;;14.54;75.11
84352;BME280;75904;43.524;1.518;2024-02-16T07:13:38;100427.69;;;14.56;74.78
84352;BME280;75904;43.524;1.518;2024-02-16T07:16:05;100436.50;;;14.50;74.59
84352;BME280;75904;43.524;1.518;2024-02-16T07:18:32;100444.09;;;14.54;74.51
84352;BME280;75904;43.524;1.518;2024-02-16T07:20:58;100442.91;;;14.57;74.20
84352;BME280;75904;43.524;1.518;2024-02-16T07:23:24;100446.47;;;14.57;74.57
84352;BME280;75904;43.524;1.518;2024-02-16T07:25:49;100451.50;;;14.60;74.99
84352;BME280;75904;43.524;1.518;2024-02-16T07:28:15;100459.44;;;14.62;74.07
84352;BME280;75904;43.524;1.518;2024-02-16T07:30:40;100459.78;;;14.59;73.72
84352;BME280;75904;43.524;1.518;2024-02-16T07:33:07;100461.81;;;14.65;74.32
84352;BME280;75904;43.524;1.518;2024-02-16T07:35:33;100466.69;;;14.69;74.08
84352;BME280;75904;43.524;1.518;2024-02-16T07:38:01;100465.50;;;14.72;74.64
84352;BME280;75904;43.524;1.518;2024-02-16T07:40:27;100463.44;;;14.74;74.64
84352;BME280;75904;43.524;1.518;2024-02-16T07:42:52;100469.91;;;14.73;74.03
84352;BME280;75904;43.524;1.518;2024-02-16T07:45:17;100467.69;;;14.77;74.31
84352;BME280;75904;43.524;1.518;2024-02-16T07:47:43;100477.66;;;14.76;74.55
84352;BME280;75904;43.524;1.518;2024-02-16T07:50:09;100480.66;;;14.81;73.95
84352;BME280;75904;43.524;1.518;2024-02-16T07:52:35;100482.72;;;14.79;74.81
84352;BME280;75904;43.524;1.518;2024-02-16T07:55:00;100486.78;;;14.75;74.19
84352;BME280;75904;43.524;1.518;2024-02-16T07:57:26;100487.63;;;14.76;73.66
84352;BME280;75904;43.524;1.518;2024-02-16T07:59:52;100487.63;;;14.76;73.54
84352;BME280;75904;43.524;1.518;2024-02-16T08:02:17;100494.25;;;14.73;74.46
84352;BME280;75904;43.524;1.518;2024-02-16T08:04:46;100496.78;;;14.75;74.86
84352;BME280;75904;43.524;1.518;2024-02-16T08:07:12;100500.31;;;14.75;73.93
84352;BME280;75904;43.524;1.518;2024-02-16T08:09:37;100499.69;;;14.73;74.98
84352;BME280;75904;43.524;1.518;2024-02-16T08:12:03;100511.16;;;14.75;74.97
84352;BME280;75904;43.524;1.518;2024-02-16T08:14:33;100512.50;;;14.79;75.13
84352;BME280;75904;43.524;1.518;2024-02-16T08:16:58;100511.81;;;14.77;73.88
84352;BME280;75904;43.524;1.518;2024-02-16T08:19:31;100521.81;;;14.77;75.00
84352;BME280;75904;43.524;1.518;2024-02-16T08:21:57;100507.72;;;14.81;74.87
84352;BME280;75904;43.524;1.518;2024-02-16T08:24:22;100516.53;;;14.83;74.74
84352;BME280;75904;43.524;1.518;2024-02-16T08:26:48;100518.72;;;14.88;73.92
84352;BME280;75904;43.524;1.518;2024-02-16T08:29:13;100515.50;;;14.92;73.73
84352;BME280;75904;43.524;1.518;2024-02-16T08:31:38;100517.84;;;14.95;74.42
84352;BME280;75904;43.524;1.518;2024-02-16T08:34:04;100521.53;;;15.02;73.92
84352;BME280;75904;43.524;1.518;2024-02-16T08:36:32;100522.19;;;15.04;74.59
84352;BME280;75904;43.524;1.518;2024-02-16T08:38:59;100524.72;;;15.06;74.73
84352;BME280;75904;43.524;1.518;2024-02-16T08:41:24;100535.41;;;15.07;74.50
84352;BME280;75904;43.524;1.518;2024-02-16T08:43:50;100539.13;;;15.06;74.43
84352;BME280;75904;43.524;1.518;2024-02-16T08:46:15;100537.44;;;15.05;74.46
84352;BME280;75904;43.524;1.518;2024-02-16T08:48:41;100541.16;;;15.04;73.91
84352;BME280;75904;43.524;1.518;2024-02-16T08:51:06;100538.41;;;15.13;74.25
84352;BME280;75904;43.524;1.518;2024-02-16T08:53:32;100541.06;;;15.21;74.25
84352;BME280;75904;43.524;1.518;2024-02-16T08:55:57;100542.78;;;15.22;74.13
84352;BME280;75904;43.524;1.518;2024-02-16T08:58:23;100546.84;;;15.26;74.48
84352;BME280;75904;43.524;1.518;2024-02-16T09:00:48;100549.16;;;15.29;73.65
84352;BME280;75904;43.524;1.518;2024-02-16T09:03:15;100547.13;;;15.31;73.88
84352;BME280;75904;43.524;1.518;2024-02-16T09:05:41;100556.28;;;15.30;73.75
84352;BME280;75904;43.524;1.518;2024-02-16T09:08:09;100553.88;;;15.35;73.60
84352;BME280;75904;43.524;1.518;2024-02-16T09:10:34;100557.03;;;15.46;74.13
84352;BME280;75904;43.524;1.518;2024-02-16T09:13:00;100564.31;;;15.54;73.95
84352;BME280;75904;43.524;1.518;2024-02-16T09:15:25;100569.31;;;15.65;73.26
84352;BME280;75904;43.524;1.518;2024-02-16T09:17:51;100574.69;;;15.73;73.06
84352;BME280;75904;43.524;1.518;2024-02-16T09:20:16;100573.50;;;15.76;73.37
84352;BME280;75904;43.524;1.518;2024-02-16T09:22:48;100573.59;;;15.82;72.65
84352;BME280;75904;43.524;1.518;2024-02-16T09:25:14;100580.72;;;15.83;73.13
84352;BME280;75904;43.524;1.518;2024-02-16T09:27:40;100587.28;;;15.89;72.25
84352;BME280;75904;43.524;1.518;2024-02-16T09:30:10;100581.41;;;15.85;72.91
84352;BME280;75904;43.524;1.518;2024-02-16T09:32:39;100587.97;;;15.91;72.35
84352;BME280;75904;43.524;1.518;2024-02-16T09:35:04;100595.72;;;15.94;72.52
84352;BME280;75904;43.524;1.518;2024-02-16T09:37:30;100596.38;;;15.96;72.14
84352;BME280;75904;43.524;1.518;2024-02-16T09:39:55;100595.88;;;16.01;72.34
84352;BME280;75904;43.524;1.518;2024-02-16T09:42:23;100593.16;;;16.01;72.01
84352;BME280;75904;43.524;1.518;2024-02-16T09:44:49;100606.75;;;15.93;72.24
84352;BME280;75904;43.524;1.518;2024-02-16T09:47:15;100603.72;;;15.87;72.46
84352;BME280;75904;43.524;1.518;2024-02-16T09:49:44;100604.28;;;15.83;72.44
84352;BME280;75904;43.524;1.518;2024-02-16T09:52:10;100602.41;;;15.83;72.38
84352;BME280;75904;43.524;1.518;2024-02-16T09:54:39;100602.03;;;15.86;72.63
84352;BME280;75904;43.524;1.518;2024-02-16T09:57:05;100604.06;;;15.93;72.27
84352;BME280;75904;43.524;1.518;2024-02-16T09:59:31;100608.38;;;16.02;72.74
84352;BME280;75904;43.524;1.518;2024-02-16T10:02:04;100608.06;;;15.97;72.39
84352;BME280;75904;43.524;1.518;2024-02-16T10:04:32;100616.25;;;15.88;72.52
84352;BME280;75904;43.524;1.518;2024-02-16T10:06:57;100615.50;;;16.03;72.14
84352;BME280;75904;43.524;1.518;2024-02-16T10:09:25;100614.47;;;16.04;71.95
84352;BME280;75904;43.524;1.518;2024-02-16T10:11:50;100621.69;;;16.11;72.13
84352;BME280;75904;43.524;1.518;2024-02-16T10:14:16;100619.50;;;16.15;71.91
84352;BME280;75904;43.524;1.518;2024-02-16T10:16:44;100623.16;;;16.22;72.40
84352;BME280;75904;43.524;1.518;2024-02-16T10:19:09;100626.44;;;16.32;72.20
84352;BME280;75904;43.524;1.518;2024-02-16T10:21:35;100623.03;;;16.38;71.86
84352;BME280;75904;43.524;1.518;2024-02-16T10:24:05;100624.34;;;16.42;72.24
84352;BME280;75904;43.524;1.518;2024-02-16T10:26:36;100628.69;;;16.51;71.66
84352;BME280;75904;43.524;1.518;2024-02-16T10:29:04;100634.22;;;16.58;71.86
84352;BME280;75904;43.524;1.518;2024-02-16T10:31:30;100638.09;;;16.63;71.02
84352;BME280;75904;43.524;1.518;2024-02-16T10:34:01;100640.06;;;16.70;71.27
84352;BME280;75904;43.524;1.518;2024-02-16T10:36:36;100643.28;;;16.73;70.36
84352;BME280;75904;43.524;1.518;2024-02-16T10:39:02;100644.78;;;16.76;71.10
84352;BME280;75904;43.524;1.518;2024-02-16T10:41:39;100644.56;;;16.77;70.42
84352;BME280;75904;43.524;1.518;2024-02-16T10:44:05;100650.22;;;16.53;70.44
84352;BME280;75904;43.524;1.518;2024-02-16T10:46:31;100657.50;;;16.52;70.41
84352;BME280;75904;43.524;1.518;2024-02-16T10:48:57;100657.19;;;16.47;70.76
84352;BME280;75904;43.524;1.518;2024-02-16T10:51:31;100666.44;;;16.38;70.85
84352;BME280;75904;43.524;1.518;2024-02-16T10:54:00;100666.97;;;16.34;71.40
84352;BME280;75904;43.524;1.518;2024-02-16T10:56:37;100669.09;;;16.23;71.10
84352;BME280;75904;43.524;1.518;2024-02-16T10:59:04;100682.34;;;16.18;71.92
84352;BME280;75904;43.524;1.518;2024-02-16T11:01:41;100682.28;;;16.04;72.22
84352;BME280;75904;43.524;1.518;2024-02-16T11:04:08;100695.59;;;15.82;72.16
84352;BME280;75904;43.524;1.518;2024-02-16T11:06:54;100686.25;;;15.54;72.20
84352;BME280;75904;43.524;1.518;2024-02-16T11:09:34;100682.88;;;15.36;72.41
84352;BME280;75904;43.524;1.518;2024-02-16T11:12:01;100695.44;;;15.29;72.93
84352;BME280;75904;43.524;1.518;2024-02-16T11:14:38;100697.47;;;15.27;72.48
84352;BME280;75904;43.524;1.518;2024-02-16T11:17:13;100694.97;;;15.25;72.30
84352;BME280;75904;43.524;1.518;2024-02-16T11:19:44;100699.53;;;15.17;71.90
84352;BME280;75904;43.524;1.518;2024-02-16T11:22:10;100695.16;;;15.16;72.31
84352;BME280;75904;43.524;1.518;2024-02-16T11:24:42;100706.66;;;15.18;72.27
84352;BME280;75904;43.524;1.518;2024-02-16T11:27:10;100708.00;;;15.22;72.85
84352;BME280;75904;43.524;1.518;2024-02-16T11:29:36;100703.53;;;15.37;72.17
84352;BME280;75904;43.524;1.518;2024-02-16T11:32:02;100697.41;;;15.51;71.89
84352;BME280;75904;43.524;1.518;2024-02-16T11:34:29;100683.00;;;15.59;71.73
84352;BME280;75904;43.524;1.518;2024-02-16T11:36:55;100690.22;;;15.74;71.29
84352;BME280;75904;43.524;1.518;2024-02-16T11:39:22;100690.50;;;15.87;72.16
84352;BME280;75904;43.524;1.518;2024-02-16T11:41:47;100700.91;;;16.07;71.37
84352;BME280;75904;43.524;1.518;2024-02-16T11:44:13;100693.75;;;16.14;71.06
84352;BME280;75904;43.524;1.518;2024-02-16T11:46:41;100697.78;;;16.18;70.89
84352;BME280;75904;43.524;1.518;2024-02-16T11:49:08;100701.84;;;16.22;70.33
84352;BME280;75904;43.524;1.518;2024-02-16T11:51:34;100697.81;;;16.10;70.71
84352;BME280;75904;43.524;1.518;2024-02-16T11:53:59;100696.06;;;16.17;71.23
84352;BME280;75904;43.524;1.518;2024-02-16T11:56:25;100691.16;;;16.20;70.96
84352;BME280;75904;43.524;1.518;2024-02-16T11:58:51;100694.16;;;16.25;70.63
84352;BME280;75904;43.524;1.518;2024-02-16T12:01:17;100696.69;;;16.27;71.13
84352;BME280;75904;43.524;1.518;2024-02-16T12:03:43;100690.44;;;16.26;70.89
84352;BME280;75904;43.524;1.518;2024-02-16T12:06:08;100690.53;;;16.33;71.10
84352;BME280;75904;43.524;1.518;2024-02-16T12:08:34;100691.16;;;16.43;70.76
84352;BME280;75904;43.524;1.518;2024-02-16T12:11:00;100687.72;;;16.49;70.77
84352;BME280;75904;43.524;1.518;2024-02-16T12:13:27;100690.94;;;16.53;70.17
84352;BME280;75904;43.524;1.518;2024-02-16T12:15:52;100686.34;;;16.53;70.47
84352;BME280;75904;43.524;1.518;2024-02-16T12:18:27;100687.16;;;16.54;69.82
84352;BME280;75904;43.524;1.518;2024-02-16T12:21:17;100687.59;;;16.43;69.51
84352;BME280;75904;43.524;1.518;2024-02-16T12:23:44;100680.59;;;16.48;70.22
84352;BME280;75904;43.524;1.518;2024-02-16T12:26:10;100684.53;;;16.46;70.24
84352;BME280;75904;43.524;1.518;2024-02-16T12:28:35;100682.28;;;16.49;70.40
84352;BME280;75904;43.524;1.518;2024-02-16T12:31:02;100681.56;;;16.55;69.88
84352;BME280;75904;43.524;1.518;2024-02-16T12:33:27;100682.97;;;16.51;69.84
84352;BME280;75904;43.524;1.518;2024-02-16T12:35:52;100679.41;;;16.51;69.80
84352;BME280;75904;43.524;1.518;2024-02-16T12:38:19;100687.16;;;16.54;69.28
84352;BME280;75904;43.524;1.518;2024-02-16T12:40:48;100685.13;;;16.56;69.39
84352;BME280;75904;43.524;1.518;2024-02-16T12:43:14;100679.50;;;16.57;68.43
84352;BME280;75904;43.524;1.518;2024-02-16T12:45:40;100686.47;;;16.60;69.17